sensor_id;sensor_type;location;lat;lon;timestamp;P1;durP1;ratioP1;P2;durP2;ratioP2
3696;SDS011;60662;48.810;8.872;2023-05-06T04:50:47;14.07;;;6.18;;
3696;SDS011;60662;48.810;8.872;2023-05-06T04:51:49;9.95;;;6.80;;
3696;SDS011;60662;48.810;8.872;2023-05-06T07:01:48;4.45;;;2.33;;
3696;SDS011;60662;48.810;8.872;2023-05-06T07:04:01;6.03;;;2.17;;
3696;SDS011;60662;48.810;8.872;2023-05-06T07:06:13;5.35;;;2.35;;
3696;SDS011;60662;48.810;8.872;2023-05-06T07:07:15;4.47;;;2.15;;
3696;SDS011;60662;48.810;8.872;2023-05-06T07:08:16;10.57;;;2.30;;
3696;SDS011;60662;48.810;8.872;2023-05-06T07:09:18;5.28;;;2.20;;
3696;SDS011;60662;48.810;8.872;2023-05-06T07:10:20;10.68;;;2.80;;
3696;SDS011;60662;48.810;8.872;2023-05-06T07:11:22;4.20;;;2.30;;
3696;SDS011;60662;48.810;8.872;2023-05-06T07:12:23;6.10;;;2.00;;
3696;SDS011;60662;48.810;8.872;2023-05-06T07:13:26;3.58;;;1.85;;
3696;SDS011;60662;48.810;8.872;2023-05-06T07:14:28;3.47;;;1.70;;
3696;SDS011;60662;48.810;8.872;2023-05-06T07:15:29;5.78;;;2.00;;
3696;SDS011;60662;48.810;8.872;2023-05-06T07:16:31;4.28;;;1.80;;
3696;SDS011;60662;48.810;8.872;2023-05-06T07:17:32;16.58;;;2.00;;
3696;SDS011;60662;48.810;8.872;2023-05-06T07:18:34;5.95;;;1.85;;
3696;SDS011;60662;48.810;8.872;2023-05-06T07:19:36;3.30;;;1.70;;
3696;SDS011;60662;48.810;8.872;2023-05-06T07:20:37;2.30;;;1.27;;
3696;SDS011;60662;48.810;8.872;2023-05-06T07:21:38;5.28;;;1.38;;
3696;SDS011;60662;48.810;8.872;2023-05-06T07:22:40;7.18;;;1.25;;
3696;SDS011;60662;48.810;8.872;2023-05-06T07:23:41;10.27;;;1.50;;
3696;SDS011;60662;48.810;8.872;2023-05-06T07:24:43;5.32;;;1.80;;
3696;SDS011;60662;48.810;8.872;2023-05-06T07:25:44;4.15;;;1.42;;
3696;SDS011;60662;48.810;8.872;2023-05-06T07:26:46;5.65;;;1.20;;
3696;SDS011;60662;48.810;8.872;2023-05-06T07:27:47;3.88;;;1.35;;
3696;SDS011;60662;48.810;8.872;2023-05-06T07:28:49;9.32;;;1.50;;
3696;SDS011;60662;48.810;8.872;2023-05-06T07:29:51;3.35;;;1.55;;
3696;SDS011;60662;48.810;8.872;2023-05-06T07:30:52;2.70;;;1.33;;
3696;SDS011;60662;48.810;8.872;2023-05-06T07:31:54;4.00;;;1.60;;
3696;SDS011;60662;48.810;8.872;2023-05-06T07:32:55;3.92;;;1.45;;
3696;SDS011;60662;48.810;8.872;2023-05-06T07:33:57;6.38;;;1.40;;
3696;SDS011;60662;48.810;8.872;2023-05-06T07:34:58;2.90;;;1.20;;
3696;SDS011;60662;48.810;8.872;2023-05-06T07:36:00;4.97;;;1.35;;
3696;SDS011;60662;48.810;8.872;2023-05-06T07:37:01;3.63;;;1.20;;
3696;SDS011;60662;48.810;8.872;2023-05-06T07:38:03;2.70;;;1.20;;
3696;SDS011;60662;48.810;8.872;2023-05-06T07:39:05;6.55;;;1.70;;
3696;SDS011;60662;48.810;8.872;2023-05-06T07:40:08;3.85;;;1.40;;
3696;SDS011;60662;48.810;8.872;2023-05-06T07:41:10;3.20;;;1.05;;
3696;SDS011;60662;48.810;8.872;2023-05-06T07:42:11;2.28;;;1.23;;
3696;SDS011;60662;48.810;8.872;2023-05-06T07:43:13;2.20;;;1.08;;
3696;SDS011;60662;48.810;8.872;2023-05-06T07:44:14;2.70;;;1.20;;
3696;SDS011;60662;48.810;8.872;2023-05-06T07:45:16;5.20;;;1.60;;
3696;SDS011;60662;48.810;8.872;2023-05-06T07:46:19;5.65;;;1.52;;
3696;SDS011;60662;48.810;8.872;2023-05-06T07:47:25;3.60;;;1.48;;
3696;SDS011;60662;48.810;8.872;2023-05-06T07:48:28;2.63;;;1.20;;
3696;SDS011;60662;48.810;8.872;2023-05-06T07:49:30;6.35;;;1.70;;
3696;SDS011;60662;48.810;8.872;2023-05-06T07:50:33;6.70;;;1.83;;
3696;SDS011;60662;48.810;8.872;2023-05-06T07:51:34;4.03;;;1.90;;
3696;SDS011;60662;48.810;8.872;2023-05-06T07:52:36;2.50;;;1.60;;
3696;SDS011;60662;48.810;8.872;2023-05-06T07:53:37;2.88;;;1.50;;
3696;SDS011;60662;48.810;8.872;2023-05-06T07:54:40;4.45;;;1.38;;
3696;SDS011;60662;48.810;8.872;2023-05-06T07:55:41;8.20;;;1.58;;
3696;SDS011;60662;48.810;8.872;2023-05-06T07:56:42;3.55;;;1.42;;
3696;SDS011;60662;48.810;8.872;2023-05-06T07:57:44;4.25;;;1.58;;
3696;SDS011;60662;48.810;8.872;2023-05-06T07:58:45;8.70;;;1.83;;
3696;SDS011;60662;48.810;8.872;2023-05-06T07:59:49;2.95;;;1.40;;
3696;SDS011;60662;48.810;8.872;2023-05-06T08:00:51;3.13;;;1.20;;
3696;SDS011;60662;48.810;8.872;2023-05-06T08:01:53;4.47;;;1.10;;
3696;SDS011;60662;48.810;8.872;2023-05-06T08:02:54;5.30;;;1.20;;
3696;SDS011;60662;48.810;8.872;2023-05-06T08:03:56;3.78;;;1.60;;
3696;SDS011;60662;48.810;8.872;2023-05-06T08:04:58;6.47;;;1.20;;
3696;SDS011;60662;48.810;8.872;2023-05-06T08:06:00;3.08;;;1.70;;
3696;SDS011;60662;48.810;8.872;2023-05-06T08:07:01;2.75;;;1.02;;
3696;SDS011;60662;48.810;8.872;2023-05-06T08:08:03;7.75;;;1.50;;
3696;SDS011;60662;48.810;8.872;2023-05-06T08:09:05;4.90;;;0.90;;
3696;SDS011;60662;48.810;8.872;2023-05-06T08:10:07;2.63;;;0.90;;
3696;SDS011;60662;48.810;8.872;2023-05-06T08:11:09;2.70;;;1.08;;
3696;SDS011;60662;48.810;8.872;2023-05-06T08:12:10;2.20;;;0.85;;
3696;SDS011;60662;48.810;8.872;2023-05-06T08:13:12;2.17;;;1.13;;
3696;SDS011;60662;48.810;8.872;2023-05-06T08:14:13;3.10;;;0.88;;
3696;SDS011;60662;48.810;8.872;2023-05-06T08:15:15;2.33;;;1.02;;
3696;SDS011;60662;48.810;8.872;2023-05-06T08:16:16;2.30;;;1.00;;
3696;SDS011;60662;48.810;8.872;2023-05-06T08:17:18;2.25;;;0.90;;
3696;SDS011;60662;48.810;8.872;2023-05-06T08:18:19;7.13;;;1.52;;
3696;SDS011;60662;48.810;8.872;2023-05-06T08:19:23;2.40;;;1.00;;
3696;SDS011;60662;48.810;8.872;2023-05-06T08:20:25;2.75;;;0.90;;
3696;SDS011;60662;48.810;8.872;2023-05-06T08:21:26;4.72;;;1.52;;
3696;SDS011;60662;48.810;8.872;2023-05-06T08:22:27;3.72;;;1.10;;
3696;SDS011;60662;48.810;8.872;2023-05-06T08:23:29;3.08;;;1.13;;
3696;SDS011;60662;48.810;8.872;2023-05-06T08:24:31;5.75;;;1.00;;
3696;SDS011;60662;48.810;8.872;2023-05-06T08:25:33;2.67;;;1.20;;
3696;SDS011;60662;48.810;8.872;2023-05-06T08:26:34;11.32;;;1.50;;
3696;SDS011;60662;48.810;8.872;2023-05-06T08:27:36;2.45;;;1.10;;
3696;SDS011;60662;48.810;8.872;2023-05-06T08:28:37;3.50;;;0.90;;
3696;SDS011;60662;48.810;8.872;2023-05-06T08:29:39;4.18;;;1.15;;
3696;SDS011;60662;48.810;8.872;2023-05-06T08:30:40;4.93;;;1.00;;
3696;SDS011;60662;48.810;8.872;2023-05-06T08:31:42;3.05;;;1.20;;
3696;SDS011;60662;48.810;8.872;2023-05-06T08:32:43;2.25;;;1.05;;
3696;SDS011;60662;48.810;8.872;2023-05-06T08:33:45;2.08;;;0.98;;
3696;SDS011;60662;48.810;8.872;2023-05-06T08:34:46;3.97;;;1.00;;
3696;SDS011;60662;48.810;8.872;2023-05-06T08:35:48;1.95;;;1.10;;
3696;SDS011;60662;48.810;8.872;2023-05-06T08:36:50;3.00;;;0.88;;
3696;SDS011;60662;48.810;8.872;2023-05-06T08:37:52;2.85;;;1.38;;
3696;SDS011;60662;48.810;8.872;2023-05-06T08:38:53;3.10;;;0.95;;
3696;SDS011;60662;48.810;8.872;2023-05-06T08:39:55;3.88;;;1.00;;
3696;SDS011;60662;48.810;8.872;2023-05-06T08:40:59;3.45;;;1.05;;
3696;SDS011;60662;48.810;8.872;2023-05-06T08:42:08;4.03;;;0.98;;
3696;SDS011;60662;48.810;8.872;2023-05-06T08:43:11;2.10;;;1.10;;
3696;SDS011;60662;48.810;8.872;2023-05-06T08:44:16;1.88;;;0.82;;
3696;SDS011;60662;48.810;8.872;2023-05-06T08:45:19;4.85;;;1.40;;
3696;SDS011;60662;48.810;8.872;2023-05-06T08:46:20;3.97;;;1.30;;
3696;SDS011;60662;48.810;8.872;2023-05-06T08:47:22;1.83;;;0.95;;
3696;SDS011;60662;48.810;8.872;2023-05-06T08:48:24;3.90;;;0.90;;
3696;SDS011;60662;48.810;8.872;2023-05-06T08:49:26;2.00;;;0.95;;
3696;SDS011;60662;48.810;8.872;2023-05-06T08:50:28;4.22;;;1.00;;
3696;SDS011;60662;48.810;8.872;2023-05-06T08:51:29;4.25;;;1.30;;
3696;SDS011;60662;48.810;8.872;2023-05-06T08:52:32;5.35;;;1.00;;
3696;SDS011;60662;48.810;8.872;2023-05-06T08:53:36;2.88;;;1.00;;
3696;SDS011;60662;48.810;8.872;2023-05-06T08:54:40;5.20;;;1.17;;
3696;SDS011;60662;48.810;8.872;2023-05-06T08:55:42;3.50;;;1.10;;
3696;SDS011;60662;48.810;8.872;2023-05-06T08:56:46;3.78;;;1.20;;
3696;SDS011;60662;48.810;8.872;2023-05-06T08:57:51;1.60;;;0.80;;
3696;SDS011;60662;48.810;8.872;2023-05-06T08:58:53;1.95;;;1.00;;
3696;SDS011;60662;48.810;8.872;2023-05-06T08:59:56;4.22;;;1.30;;
3696;SDS011;60662;48.810;8.872;2023-05-06T09:00:58;5.78;;;1.08;;
3696;SDS011;60662;48.810;8.872;2023-05-06T09:02:01;3.42;;;1.08;;
3696;SDS011;60662;48.810;8.872;2023-05-06T09:03:04;2.20;;;1.00;;
3696;SDS011;60662;48.810;8.872;2023-05-06T09:04:06;3.30;;;1.00;;
3696;SDS011;60662;48.810;8.872;2023-05-06T09:05:08;2.53;;;0.80;;
3696;SDS011;60662;48.810;8.872;2023-05-06T09:06:10;5.13;;;1.10;;
3696;SDS011;60662;48.810;8.872;2023-05-06T09:07:12;2.20;;;1.17;;
3696;SDS011;60662;48.810;8.872;2023-05-06T09:08:13;2.25;;;1.05;;
3696;SDS011;60662;48.810;8.872;2023-05-06T09:09:16;1.65;;;0.85;;
3696;SDS011;60662;48.810;8.872;2023-05-06T09:10:17;1.77;;;0.90;;
3696;SDS011;60662;48.810;8.872;2023-05-06T09:11:20;3.58;;;1.30;;
3696;SDS011;60662;48.810;8.872;2023-05-06T09:12:22;2.45;;;1.10;;
3696;SDS011;60662;48.810;8.872;2023-05-06T09:13:24;1.70;;;1.00;;
3696;SDS011;60662;48.810;8.872;2023-05-06T09:14:26;2.03;;;0.85;;
3696;SDS011;60662;48.810;8.872;2023-05-06T09:15:37;5.70;;;0.90;;
3696;SDS011;60662;48.810;8.872;2023-05-06T09:16:48;3.85;;;1.00;;
3696;SDS011;60662;48.810;8.872;2023-05-06T09:17:51;4.80;;;1.10;;
3696;SDS011;60662;48.810;8.872;2023-05-06T09:18:55;9.13;;;1.00;;
3696;SDS011;60662;48.810;8.872;2023-05-06T09:19:57;3.92;;;0.95;;
3696;SDS011;60662;48.810;8.872;2023-05-06T09:20:58;5.18;;;0.85;;
3696;SDS011;60662;48.810;8.872;2023-05-06T09:22:01;1.80;;;0.80;;
3696;SDS011;60662;48.810;8.872;2023-05-06T09:23:03;2.75;;;1.20;;
3696;SDS011;60662;48.810;8.872;2023-05-06T09:24:06;2.15;;;0.80;;
3696;SDS011;60662;48.810;8.872;2023-05-06T09:25:08;2.15;;;0.80;;
3696;SDS011;60662;48.810;8.872;2023-05-06T09:26:12;3.33;;;0.95;;
3696;SDS011;60662;48.810;8.872;2023-05-06T09:27:14;5.70;;;0.95;;
3696;SDS011;60662;48.810;8.872;2023-05-06T09:28:15;2.83;;;0.88;;
3696;SDS011;60662;48.810;8.872;2023-05-06T09:29:16;3.25;;;1.13;;
3696;SDS011;60662;48.810;8.872;2023-05-06T09:30:18;4.38;;;0.93;;
3696;SDS011;60662;48.810;8.872;2023-05-06T09:31:20;5.60;;;1.38;;
3696;SDS011;60662;48.810;8.872;2023-05-06T09:32:22;2.47;;;0.90;;
3696;SDS011;60662;48.810;8.872;2023-05-06T09:33:24;1.40;;;0.80;;
3696;SDS011;60662;48.810;8.872;2023-05-06T09:34:27;4.00;;;1.23;;
3696;SDS011;60662;48.810;8.872;2023-05-06T09:35:34;1.73;;;0.80;;
3696;SDS011;60662;48.810;8.872;2023-05-06T09:36:39;3.15;;;0.90;;
3696;SDS011;60662;48.810;8.872;2023-05-06T09:37:41;2.08;;;1.05;;
3696;SDS011;60662;48.810;8.872;2023-05-06T09:38:42;2.30;;;0.80;;
3696;SDS011;60662;48.810;8.872;2023-05-06T09:39:43;2.45;;;0.85;;
3696;SDS011;60662;48.810;8.872;2023-05-06T09:40:46;4.15;;;0.90;;
3696;SDS011;60662;48.810;8.872;2023-05-06T09:41:47;3.25;;;1.20;;
3696;SDS011;60662;48.810;8.872;2023-05-06T09:42:48;2.63;;;1.10;;
3696;SDS011;60662;48.810;8.872;2023-05-06T09:43:52;3.25;;;0.80;;
3696;SDS011;60662;48.810;8.872;2023-05-06T09:45:03;2.55;;;0.90;;
3696;SDS011;60662;48.810;8.872;2023-05-06T09:46:05;2.05;;;0.90;;
3696;SDS011;60662;48.810;8.872;2023-05-06T09:47:07;4.40;;;0.85;;
3696;SDS011;60662;48.810;8.872;2023-05-06T09:48:09;1.67;;;0.73;;
3696;SDS011;60662;48.810;8.872;2023-05-06T09:49:11;2.50;;;0.80;;
3696;SDS011;60662;48.810;8.872;2023-05-06T09:50:15;4.68;;;1.10;;
3696;SDS011;60662;48.810;8.872;2023-05-06T09:51:16;2.63;;;0.90;;
3696;SDS011;60662;48.810;8.872;2023-05-06T09:52:18;1.52;;;0.77;;
3696;SDS011;60662;48.810;8.872;2023-05-06T09:53:24;12.20;;;0.95;;
3696;SDS011;60662;48.810;8.872;2023-05-06T09:54:27;3.45;;;0.90;;
3696;SDS011;60662;48.810;8.872;2023-05-06T09:55:29;1.20;;;0.80;;
3696;SDS011;60662;48.810;8.872;2023-05-06T09:56:30;1.20;;;0.68;;
3696;SDS011;60662;48.810;8.872;2023-05-06T09:57:33;1.25;;;0.70;;
3696;SDS011;60662;48.810;8.872;2023-05-06T09:58:37;4.85;;;1.02;;
3696;SDS011;60662;48.810;8.872;2023-05-06T09:59:38;3.15;;;0.80;;
3696;SDS011;60662;48.810;8.872;2023-05-06T10:00:45;2.65;;;0.80;;
3696;SDS011;60662;48.810;8.872;2023-05-06T10:01:47;2.00;;;0.85;;
3696;SDS011;60662;48.810;8.872;2023-05-06T10:02:49;1.70;;;0.80;;
3696;SDS011;60662;48.810;8.872;2023-05-06T10:03:51;1.90;;;0.80;;
3696;SDS011;60662;48.810;8.872;2023-05-06T10:04:55;3.00;;;1.00;;
3696;SDS011;60662;48.810;8.872;2023-05-06T10:05:59;9.75;;;1.90;;
3696;SDS011;60662;48.810;8.872;2023-05-06T10:07:02;8.18;;;1.50;;
3696;SDS011;60662;48.810;8.872;2023-05-06T10:08:04;3.22;;;1.13;;
3696;SDS011;60662;48.810;8.872;2023-05-06T10:09:07;2.33;;;1.10;;
3696;SDS011;60662;48.810;8.872;2023-05-06T10:10:10;1.70;;;1.00;;
3696;SDS011;60662;48.810;8.872;2023-05-06T10:11:12;1.88;;;0.80;;
3696;SDS011;60662;48.810;8.872;2023-05-06T10:12:14;3.15;;;1.00;;
3696;SDS011;60662;48.810;8.872;2023-05-06T10:13:17;1.70;;;0.80;;
3696;SDS011;60662;48.810;8.872;2023-05-06T10:14:20;3.83;;;0.80;;
3696;SDS011;60662;48.810;8.872;2023-05-06T10:15:22;4.80;;;0.80;;
3696;SDS011;60662;48.810;8.872;2023-05-06T10:16:26;3.65;;;0.80;;
3696;SDS011;60662;48.810;8.872;2023-05-06T10:17:28;1.90;;;0.90;;
3696;SDS011;60662;48.810;8.872;2023-05-06T10:18:31;1.50;;;0.80;;
3696;SDS011;60662;48.810;8.872;2023-05-06T10:19:38;1.75;;;0.70;;
3696;SDS011;60662;48.810;8.872;2023-05-06T10:20:42;2.28;;;0.90;;
3696;SDS011;60662;48.810;8.872;2023-05-06T10:21:46;7.57;;;0.98;;
3696;SDS011;60662;48.810;8.872;2023-05-06T10:23:02;3.20;;;1.00;;
3696;SDS011;60662;48.810;8.872;2023-05-06T10:24:22;1.67;;;0.68;;
3696;SDS011;60662;48.810;8.872;2023-05-06T10:25:38;3.05;;;0.80;;
3696;SDS011;60662;48.810;8.872;2023-05-06T10:26:42;1.73;;;0.73;;
3696;SDS011;60662;48.810;8.872;2023-05-06T10:27:46;6.40;;;0.90;;
3696;SDS011;60662;48.810;8.872;2023-05-06T10:28:49;6.35;;;1.10;;
3696;SDS011;60662;48.810;8.872;2023-05-06T10:29:53;3.70;;;0.80;;
3696;SDS011;60662;48.810;8.872;2023-05-06T10:30:59;1.80;;;0.80;;
3696;SDS011;60662;48.810;8.872;2023-05-06T10:32:04;2.38;;;1.13;;
3696;SDS011;60662;48.810;8.872;2023-05-06T10:33:09;3.80;;;0.90;;
3696;SDS011;60662;48.810;8.872;2023-05-06T10:34:12;2.15;;;0.80;;
3696;SDS011;60662;48.810;8.872;2023-05-06T10:35:19;1.92;;;1.10;;
3696;SDS011;60662;48.810;8.872;2023-05-06T10:36:27;1.33;;;0.65;;
3696;SDS011;60662;48.810;8.872;2023-05-06T10:37:32;1.83;;;0.88;;
3696;SDS011;60662;48.810;8.872;2023-05-06T10:38:35;2.55;;;0.90;;
3696;SDS011;60662;48.810;8.872;2023-05-06T10:39:41;4.93;;;1.02;;
3696;SDS011;60662;48.810;8.872;2023-05-06T10:40:43;2.35;;;1.13;;
3696;SDS011;60662;48.810;8.872;2023-05-06T10:41:46;3.50;;;0.80;;
3696;SDS011;60662;48.810;8.872;2023-05-06T10:42:48;2.17;;;0.82;;
3696;SDS011;60662;48.810;8.872;2023-05-06T10:43:51;3.40;;;0.90;;
3696;SDS011;60662;48.810;8.872;2023-05-06T10:46:12;2.33;;;0.93;;
3696;SDS011;60662;48.810;8.872;2023-05-06T10:47:14;3.40;;;0.90;;
3696;SDS011;60662;48.810;8.872;2023-05-06T10:48:15;1.67;;;0.80;;
3696;SDS011;60662;48.810;8.872;2023-05-06T10:49:16;2.55;;;0.90;;
3696;SDS011;60662;48.810;8.872;2023-05-06T10:51:23;2.30;;;1.02;;
3696;SDS011;60662;48.810;8.872;2023-05-06T10:52:35;1.80;;;0.90;;
3696;SDS011;60662;48.810;8.872;2023-05-06T10:54:56;1.60;;;0.82;;
3696;SDS011;60662;48.810;8.872;2023-05-06T10:56:07;5.65;;;0.90;;
3696;SDS011;60662;48.810;8.872;2023-05-06T10:57:11;3.92;;;0.90;;
3696;SDS011;60662;48.810;8.872;2023-05-06T10:58:13;1.58;;;0.80;;
3696;SDS011;60662;48.810;8.872;2023-05-06T10:59:25;6.60;;;1.25;;
3696;SDS011;60662;48.810;8.872;2023-05-06T11:00:32;9.43;;;1.08;;
3696;SDS011;60662;48.810;8.872;2023-05-06T11:01:34;1.48;;;0.90;;
3696;SDS011;60662;48.810;8.872;2023-05-06T11:02:37;1.73;;;0.80;;
3696;SDS011;60662;48.810;8.872;2023-05-06T11:03:41;1.88;;;0.85;;
3696;SDS011;60662;48.810;8.872;2023-05-06T11:04:48;3.80;;;1.30;;
3696;SDS011;60662;48.810;8.872;2023-05-06T11:05:52;1.55;;;0.80;;
3696;SDS011;60662;48.810;8.872;2023-05-06T11:06:53;3.78;;;1.00;;
3696;SDS011;60662;48.810;8.872;2023-05-06T11:08:07;3.58;;;1.17;;
3696;SDS011;60662;48.810;8.872;2023-05-06T11:10:30;3.75;;;0.95;;
3696;SDS011;60662;48.810;8.872;2023-05-06T11:11:53;5.70;;;0.98;;
3696;SDS011;60662;48.810;8.872;2023-05-06T11:16:49;3.15;;;0.90;;
3696;SDS011;60662;48.810;8.872;2023-05-06T11:17:52;3.20;;;1.00;;
3696;SDS011;60662;48.810;8.872;2023-05-06T11:18:57;2.97;;;1.10;;
3696;SDS011;60662;48.810;8.872;2023-05-06T11:20:18;3.75;;;0.95;;
3696;SDS011;60662;48.810;8.872;2023-05-06T11:22:37;6.28;;;1.00;;
3696;SDS011;60662;48.810;8.872;2023-05-06T11:24:42;8.95;;;1.42;;
3696;SDS011;60662;48.810;8.872;2023-05-06T11:25:43;4.60;;;1.00;;
3696;SDS011;60662;48.810;8.872;2023-05-06T11:26:47;5.57;;;1.40;;
3696;SDS011;60662;48.810;8.872;2023-05-06T11:27:49;1.85;;;1.20;;
3696;SDS011;60662;48.810;8.872;2023-05-06T11:28:51;1.63;;;0.90;;
3696;SDS011;60662;48.810;8.872;2023-05-06T11:29:52;3.15;;;1.00;;
3696;SDS011;60662;48.810;8.872;2023-05-06T11:30:54;3.55;;;1.25;;
3696;SDS011;60662;48.810;8.872;2023-05-06T11:31:56;4.28;;;1.27;;
3696;SDS011;60662;48.810;8.872;2023-05-06T11:32:58;3.72;;;1.00;;
3696;SDS011;60662;48.810;8.872;2023-05-06T11:34:06;2.40;;;1.00;;
3696;SDS011;60662;48.810;8.872;2023-05-06T11:35:10;2.50;;;0.93;;
3696;SDS011;60662;48.810;8.872;2023-05-06T11:36:15;2.75;;;1.30;;
3696;SDS011;60662;48.810;8.872;2023-05-06T11:37:25;4.22;;;1.02;;
3696;SDS011;60662;48.810;8.872;2023-05-06T11:38:40;4.53;;;1.00;;
3696;SDS011;60662;48.810;8.872;2023-05-06T11:39:47;2.38;;;1.17;;
3696;SDS011;60662;48.810;8.872;2023-05-06T11:40:49;3.65;;;1.50;;
3696;SDS011;60662;48.810;8.872;2023-05-06T11:41:51;2.00;;;0.90;;
3696;SDS011;60662;48.810;8.872;2023-05-06T11:42:53;7.43;;;1.05;;
3696;SDS011;60662;48.810;8.872;2023-05-06T11:43:55;2.25;;;1.27;;
3696;SDS011;60662;48.810;8.872;2023-05-06T11:44:59;2.00;;;1.10;;
3696;SDS011;60662;48.810;8.872;2023-05-06T11:46:03;3.25;;;1.20;;
3696;SDS011;60662;48.810;8.872;2023-05-06T11:47:06;2.97;;;1.13;;
3696;SDS011;60662;48.810;8.872;2023-05-06T11:48:15;3.50;;;1.13;;
3696;SDS011;60662;48.810;8.872;2023-05-06T11:49:17;2.15;;;1.15;;
3696;SDS011;60662;48.810;8.872;2023-05-06T11:50:20;2.78;;;1.10;;
3696;SDS011;60662;48.810;8.872;2023-05-06T11:51:22;10.02;;;1.60;;
3696;SDS011;60662;48.810;8.872;2023-05-06T11:52:24;2.53;;;0.98;;
3696;SDS011;60662;48.810;8.872;2023-05-06T11:53:26;2.20;;;0.90;;
3696;SDS011;60662;48.810;8.872;2023-05-06T11:54:27;1.77;;;0.98;;
3696;SDS011;60662;48.810;8.872;2023-05-06T11:55:29;2.95;;;0.95;;
3696;SDS011;60662;48.810;8.872;2023-05-06T11:56:30;3.60;;;1.10;;
3696;SDS011;60662;48.810;8.872;2023-05-06T11:57:45;1.73;;;0.98;;
3696;SDS011;60662;48.810;8.872;2023-05-06T11:58:47;2.95;;;1.08;;
3696;SDS011;60662;48.810;8.872;2023-05-06T11:59:52;3.72;;;1.10;;
3696;SDS011;60662;48.810;8.872;2023-05-06T12:00:58;2.88;;;0.90;;
3696;SDS011;60662;48.810;8.872;2023-05-06T12:02:02;2.45;;;1.23;;
3696;SDS011;60662;48.810;8.872;2023-05-06T12:03:09;2.83;;;0.98;;
3696;SDS011;60662;48.810;8.872;2023-05-06T12:04:14;3.42;;;0.85;;
3696;SDS011;60662;48.810;8.872;2023-05-06T12:05:16;4.90;;;1.00;;
3696;SDS011;60662;48.810;8.872;2023-05-06T12:06:17;3.15;;;1.20;;
3696;SDS011;60662;48.810;8.872;2023-05-06T12:07:19;3.63;;;0.98;;
3696;SDS011;60662;48.810;8.872;2023-05-06T12:08:23;4.28;;;1.73;;
3696;SDS011;60662;48.810;8.872;2023-05-06T12:09:28;2.08;;;1.00;;
3696;SDS011;60662;48.810;8.872;2023-05-06T12:10:30;4.63;;;0.90;;
3696;SDS011;60662;48.810;8.872;2023-05-06T12:11:32;7.53;;;1.00;;
3696;SDS011;60662;48.810;8.872;2023-05-06T12:12:34;2.45;;;1.05;;
3696;SDS011;60662;48.810;8.872;2023-05-06T12:13:36;4.65;;;1.00;;
3696;SDS011;60662;48.810;8.872;2023-05-06T12:14:39;1.92;;;0.90;;
3696;SDS011;60662;48.810;8.872;2023-05-06T12:15:41;20.60;;;1.20;;
3696;SDS011;60662;48.810;8.872;2023-05-06T12:16:43;1.70;;;1.00;;
3696;SDS011;60662;48.810;8.872;2023-05-06T12:17:45;2.40;;;0.90;;
3696;SDS011;60662;48.810;8.872;2023-05-06T12:18:46;4.07;;;1.10;;
3696;SDS011;60662;48.810;8.872;2023-05-06T12:19:49;5.93;;;1.00;;
3696;SDS011;60662;48.810;8.872;2023-05-06T12:20:57;2.50;;;1.10;;
3696;SDS011;60662;48.810;8.872;2023-05-06T12:22:18;3.67;;;1.23;;
3696;SDS011;60662;48.810;8.872;2023-05-06T12:23:21;3.20;;;0.88;;
3696;SDS011;60662;48.810;8.872;2023-05-06T12:24:26;1.20;;;0.70;;
3696;SDS011;60662;48.810;8.872;2023-05-06T12:25:31;3.58;;;0.90;;
3696;SDS011;60662;48.810;8.872;2023-05-06T12:26:42;3.40;;;1.27;;
3696;SDS011;60662;48.810;8.872;2023-05-06T12:27:48;2.25;;;0.80;;
3696;SDS011;60662;48.810;8.872;2023-05-06T12:29:06;4.80;;;1.00;;
3696;SDS011;60662;48.810;8.872;2023-05-06T12:30:10;2.00;;;1.00;;
3696;SDS011;60662;48.810;8.872;2023-05-06T12:31:19;7.28;;;1.20;;
3696;SDS011;60662;48.810;8.872;2023-05-06T12:32:24;3.55;;;1.00;;
3696;SDS011;60662;48.810;8.872;2023-05-06T12:33:25;2.13;;;0.80;;
3696;SDS011;60662;48.810;8.872;2023-05-06T12:34:34;2.47;;;1.00;;
3696;SDS011;60662;48.810;8.872;2023-05-06T12:35:37;6.60;;;1.23;;
3696;SDS011;60662;48.810;8.872;2023-05-06T12:36:40;5.57;;;1.23;;
3696;SDS011;60662;48.810;8.872;2023-05-06T12:37:44;2.53;;;1.10;;
3696;SDS011;60662;48.810;8.872;2023-05-06T12:38:55;2.67;;;1.00;;
3696;SDS011;60662;48.810;8.872;2023-05-06T12:39:58;1.20;;;0.80;;
3696;SDS011;60662;48.810;8.872;2023-05-06T12:41:00;2.42;;;1.00;;
3696;SDS011;60662;48.810;8.872;2023-05-06T12:42:01;3.40;;;0.90;;
3696;SDS011;60662;48.810;8.872;2023-05-06T12:43:03;2.65;;;1.00;;
3696;SDS011;60662;48.810;8.872;2023-05-06T12:45:32;1.73;;;0.90;;
3696;SDS011;60662;48.810;8.872;2023-05-06T12:46:34;2.35;;;1.00;;
3696;SDS011;60662;48.810;8.872;2023-05-06T12:47:35;1.65;;;0.90;;
3696;SDS011;60662;48.810;8.872;2023-05-06T12:48:37;3.42;;;1.38;;
3696;SDS011;60662;48.810;8.872;2023-05-06T12:49:49;2.50;;;1.00;;
3696;SDS011;60662;48.810;8.872;2023-05-06T12:50:51;2.15;;;0.90;;
3696;SDS011;60662;48.810;8.872;2023-05-06T12:52:05;2.15;;;0.80;;
3696;SDS011;60662;48.810;8.872;2023-05-06T12:53:11;1.55;;;0.88;;
3696;SDS011;60662;48.810;8.872;2023-05-06T12:54:28;6.75;;;1.05;;
3696;SDS011;60662;48.810;8.872;2023-05-06T12:55:31;2.00;;;0.88;;
3696;SDS011;60662;48.810;8.872;2023-05-06T12:56:42;4.63;;;0.90;;
3696;SDS011;60662;48.810;8.872;2023-05-06T12:57:45;5.53;;;1.00;;
3696;SDS011;60662;48.810;8.872;2023-05-06T12:58:56;5.07;;;0.80;;
3696;SDS011;60662;48.810;8.872;2023-05-06T12:59:59;2.88;;;0.90;;
3696;SDS011;60662;48.810;8.872;2023-05-06T13:01:00;3.03;;;1.00;;
3696;SDS011;60662;48.810;8.872;2023-05-06T13:02:02;1.52;;;0.90;;
3696;SDS011;60662;48.810;8.872;2023-05-06T13:03:04;1.65;;;0.90;;
3696;SDS011;60662;48.810;8.872;2023-05-06T13:04:06;3.28;;;1.10;;
3696;SDS011;60662;48.810;8.872;2023-05-06T13:05:08;2.17;;;0.90;;
3696;SDS011;60662;48.810;8.872;2023-05-06T13:06:09;5.88;;;1.50;;
3696;SDS011;60662;48.810;8.872;2023-05-06T13:07:11;1.77;;;1.00;;
3696;SDS011;60662;48.810;8.872;2023-05-06T13:08:15;1.10;;;0.77;;
3696;SDS011;60662;48.810;8.872;2023-05-06T13:09:17;3.95;;;1.20;;
3696;SDS011;60662;48.810;8.872;2023-05-06T13:10:18;3.88;;;0.90;;
3696;SDS011;60662;48.810;8.872;2023-05-06T13:11:20;2.10;;;1.00;;
3696;SDS011;60662;48.810;8.872;2023-05-06T13:12:22;1.35;;;0.80;;
3696;SDS011;60662;48.810;8.872;2023-05-06T13:13:23;3.67;;;1.00;;
3696;SDS011;60662;48.810;8.872;2023-05-06T13:14:25;4.72;;;1.10;;
3696;SDS011;60662;48.810;8.872;2023-05-06T13:15:26;2.75;;;1.15;;
3696;SDS011;60662;48.810;8.872;2023-05-06T13:16:29;5.30;;;1.75;;
3696;SDS011;60662;48.810;8.872;2023-05-06T13:17:31;1.98;;;0.90;;
3696;SDS011;60662;48.810;8.872;2023-05-06T13:18:33;1.88;;;1.00;;
3696;SDS011;60662;48.810;8.872;2023-05-06T13:19:34;2.13;;;0.88;;
3696;SDS011;60662;48.810;8.872;2023-05-06T13:20:36;2.75;;;0.95;;
3696;SDS011;60662;48.810;8.872;2023-05-06T13:21:37;8.57;;;1.10;;
3696;SDS011;60662;48.810;8.872;2023-05-06T13:22:40;4.03;;;0.98;;
3696;SDS011;60662;48.810;8.872;2023-05-06T13:23:55;2.70;;;1.10;;
3696;SDS011;60662;48.810;8.872;2023-05-06T13:24:56;3.05;;;1.20;;
3696;SDS011;60662;48.810;8.872;2023-05-06T13:25:57;3.60;;;1.33;;
3696;SDS011;60662;48.810;8.872;2023-05-06T13:27:05;5.35;;;1.00;;
3696;SDS011;60662;48.810;8.872;2023-05-06T13:28:06;7.43;;;1.10;;
3696;SDS011;60662;48.810;8.872;2023-05-06T13:29:08;11.15;;;1.10;;
3696;SDS011;60662;48.810;8.872;2023-05-06T13:30:11;1.38;;;0.80;;
3696;SDS011;60662;48.810;8.872;2023-05-06T13:31:13;3.80;;;1.10;;
3696;SDS011;60662;48.810;8.872;2023-05-06T13:32:14;3.05;;;0.90;;
3696;SDS011;60662;48.810;8.872;2023-05-06T13:33:16;2.40;;;0.90;;
3696;SDS011;60662;48.810;8.872;2023-05-06T13:34:18;1.90;;;0.90;;
3696;SDS011;60662;48.810;8.872;2023-05-06T13:35:19;3.25;;;0.80;;
3696;SDS011;60662;48.810;8.872;2023-05-06T13:36:21;2.20;;;1.00;;
3696;SDS011;60662;48.810;8.872;2023-05-06T13:37:23;3.97;;;0.80;;
3696;SDS011;60662;48.810;8.872;2023-05-06T13:38:25;1.97;;;0.80;;
3696;SDS011;60662;48.810;8.872;2023-05-06T13:39:27;2.93;;;1.30;;
3696;SDS011;60662;48.810;8.872;2023-05-06T13:40:28;2.70;;;1.03;;
3696;SDS011;60662;48.810;8.872;2023-05-06T13:41:29;1.77;;;0.90;;